createdAt,value
2018-05-07T00:00:17.535Z,2.30
2018-05-07T00:02:45.097Z,2.27
2018-05-07T00:05:12.754Z,2.23
2018-05-07T00:07:40.285Z,2.40
2018-05-07T00:10:07.794Z,2.30
2018-05-07T00:12:35.292Z,2.53
2018-05-07T00:15:02.801Z,2.67
2018-05-07T00:17:30.296Z,2.80
2018-05-07T00:19:58.293Z,2.80
2018-05-07T00:22:25.778Z,2.50
2018-05-07T00:24:53.866Z,2.60
2018-05-07T00:27:21.345Z,2.50
2018-05-07T00:29:49.174Z,2.87
2018-05-07T00:32:17.034Z,2.60
2018-05-07T00:34:44.582Z,2.80
2018-05-07T00:37:12.085Z,2.70
2018-05-07T00:39:40.431Z,2.70
2018-05-07T00:42:07.921Z,2.90
2018-05-07T00:44:35.407Z,2.70
2018-05-07T00:47:02.926Z,2.80
2018-05-07T00:49:30.391Z,2.80
2018-05-07T00:51:59.049Z,2.63
2018-05-07T00:54:26.938Z,2.70
2018-05-07T00:56:54.489Z,2.60
2018-05-07T00:59:22.171Z,2.40
2018-05-07T01:01:49.734Z,3.00
2018-05-07T01:04:17.222Z,2.73
2018-05-07T01:06:44.736Z,2.83
2018-05-07T01:09:12.447Z,2.60
2018-05-07T01:11:40.003Z,2.67
2018-05-07T01:14:07.474Z,2.70
2018-05-07T01:16:36.764Z,3.03
2018-05-07T01:19:04.285Z,2.73
2018-05-07T01:21:31.794Z,2.50
2018-05-07T01:23:59.370Z,2.63
2018-05-07T01:26:26.879Z,2.70
2018-05-07T01:28:54.943Z,2.87
2018-05-07T01:31:22.477Z,2.90
2018-05-07T01:33:49.970Z,3.10
2018-05-07T01:36:17.471Z,2.80
2018-05-07T01:38:44.945Z,2.97
2018-05-07T01:41:12.446Z,2.87
2018-05-07T01:43:40.063Z,3.00
2018-05-07T01:46:07.602Z,2.97
2018-05-07T01:48:35.067Z,2.93
2018-05-07T01:51:02.549Z,2.80
2018-05-07T01:53:30.041Z,3.33
2018-05-07T01:55:57.553Z,2.83
2018-05-07T01:58:25.039Z,3.10
2018-05-07T02:00:52.513Z,2.90
2018-05-07T02:03:20.029Z,3.07
2018-05-07T02:05:47.533Z,2.77
2018-05-07T02:08:15.245Z,3.17
2018-05-07T02:10:42.706Z,3.20
2018-05-07T02:13:10.214Z,2.80
2018-05-07T02:15:38.086Z,3.13
2018-05-07T02:18:05.581Z,2.90
2018-05-07T02:20:33.999Z,3.10
2018-05-07T02:23:01.733Z,2.60
2018-05-07T02:25:29.481Z,3.03
2018-05-07T02:27:57.365Z,2.90
2018-05-07T02:30:24.853Z,3.00
2018-05-07T02:32:52.406Z,2.63
2018-05-07T02:35:19.896Z,3.00
2018-05-07T02:37:47.398Z,3.00
2018-05-07T02:40:14.859Z,3.03
2018-05-07T02:42:42.362Z,3.03
2018-05-07T02:45:09.826Z,3.10
2018-05-07T02:47:37.301Z,3.10
2018-05-07T02:50:04.771Z,3.27
2018-05-07T02:52:32.268Z,3.10
2018-05-07T02:54:59.735Z,3.10
2018-05-07T02:57:27.219Z,3.00
2018-05-07T02:59:54.690Z,3.07
2018-05-07T03:02:22.164Z,3.30
2018-05-07T03:04:49.625Z,2.90
2018-05-07T03:07:17.106Z,3.60
2018-05-07T03:09:44.562Z,3.23
2018-05-07T03:12:12.105Z,3.30
2018-05-07T03:14:39.569Z,3.77
2018-05-07T03:17:07.059Z,3.40
2018-05-07T03:19:34.530Z,3.43
2018-05-07T03:22:02.005Z,3.40
2018-05-07T03:24:29.462Z,3.40
2018-05-07T03:26:56.950Z,3.47
2018-05-07T03:29:24.412Z,3.90
2018-05-07T03:31:51.879Z,3.00
2018-05-07T03:34:19.362Z,3.80
2018-05-07T03:36:46.845Z,3.43
2018-05-07T03:39:14.330Z,3.33
2018-05-07T03:41:41.803Z,3.60
2018-05-07T03:44:09.338Z,4.07
2018-05-07T03:46:36.803Z,3.80
2018-05-07T03:49:04.287Z,3.80
2018-05-07T03:51:31.749Z,3.70
2018-05-07T03:53:59.288Z,3.83
2018-05-07T03:56:26.721Z,3.90
2018-05-07T03:58:54.202Z,4.00
2018-05-07T04:01:21.673Z,3.83
2018-05-07T04:03:49.178Z,3.73
2018-05-07T04:06:16.645Z,3.90
2018-05-07T04:08:44.118Z,3.23
2018-05-07T04:11:11.602Z,3.70
2018-05-07T04:13:39.062Z,3.47
2018-05-07T04:16:06.569Z,3.60
2018-05-07T04:18:45.907Z,3.33
2018-05-07T04:21:14.926Z,3.40
2018-05-07T04:24:05.153Z,3.70
2018-05-07T04:26:32.634Z,3.70
2018-05-07T04:29:00.090Z,3.40
2018-05-07T04:31:27.577Z,3.50
2018-05-07T04:33:55.033Z,3.43
2018-05-07T04:36:22.546Z,3.20
2018-05-07T04:38:50.002Z,3.37
2018-05-07T04:41:17.473Z,3.20
2018-05-07T04:43:44.953Z,3.53
2018-05-07T04:46:12.413Z,3.43
2018-05-07T04:48:39.902Z,3.37
2018-05-07T04:51:07.370Z,3.10
2018-05-07T04:53:34.850Z,3.57
2018-05-07T04:56:02.302Z,3.27
2018-05-07T04:58:29.787Z,3.30
2018-05-07T05:00:57.256Z,3.20
2018-05-07T05:03:24.759Z,3.57
2018-05-07T05:05:52.242Z,3.57
2018-05-07T05:08:19.725Z,3.33
2018-05-07T05:10:47.210Z,3.67
2018-05-07T05:13:14.678Z,3.87
2018-05-07T05:15:42.158Z,3.73
2018-05-07T05:18:09.610Z,3.70
2018-05-07T05:20:37.094Z,4.00
2018-05-07T05:23:04.579Z,3.80
2018-05-07T05:25:32.062Z,9.30
2018-05-07T05:27:59.533Z,5.83
2018-05-07T05:30:27.012Z,3.67
2018-05-07T05:32:54.485Z,3.60
2018-05-07T05:35:21.969Z,3.87
2018-05-07T05:37:49.426Z,3.40
2018-05-07T05:40:16.983Z,3.60
2018-05-07T05:42:44.459Z,3.30
2018-05-07T05:45:11.942Z,3.73
2018-05-07T05:47:39.573Z,3.23
2018-05-07T05:50:07.147Z,3.37
2018-05-07T05:52:34.530Z,3.17
2018-05-07T05:55:02.022Z,3.73
2018-05-07T05:57:29.485Z,3.50
2018-05-07T05:59:56.963Z,3.33
2018-05-07T06:02:24.421Z,3.50
2018-05-07T06:04:54.786Z,3.07
2018-05-07T06:07:22.257Z,3.20
2018-05-07T06:09:49.750Z,3.20
2018-05-07T06:12:17.218Z,2.93
2018-05-07T06:14:44.859Z,2.90
2018-05-07T06:17:12.242Z,3.20
2018-05-07T06:19:39.737Z,3.10
2018-05-07T06:22:07.196Z,3.00
2018-05-07T06:24:34.661Z,3.23
2018-05-07T06:27:02.146Z,2.87
2018-05-07T06:29:29.614Z,3.20
2018-05-07T06:31:57.090Z,2.70
2018-05-07T06:34:24.648Z,3.10
2018-05-07T06:36:52.113Z,2.80
2018-05-07T06:39:19.541Z,2.77
2018-05-07T06:41:47.039Z,2.53
2018-05-07T06:44:14.501Z,2.50
2018-05-07T06:46:42.000Z,2.83
2018-05-07T06:49:09.490Z,2.50
2018-05-07T06:51:36.970Z,2.80
2018-05-07T06:54:04.433Z,2.87
2018-05-07T06:56:31.909Z,2.70
2018-05-07T06:58:59.370Z,2.80
2018-05-07T07:01:26.851Z,3.07
2018-05-07T07:03:54.306Z,2.93
2018-05-07T07:06:21.834Z,2.77
2018-05-07T07:08:49.350Z,2.90
2018-05-07T07:11:17.049Z,2.43
2018-05-07T07:13:45.381Z,2.60
2018-05-07T07:16:12.902Z,2.60
2018-05-07T07:18:40.388Z,2.67
2018-05-07T07:21:08.093Z,2.90
2018-05-07T07:23:36.207Z,2.60
2018-05-07T07:26:04.206Z,2.70
2018-05-07T07:28:31.666Z,2.97
2018-05-07T07:30:59.214Z,2.60
2018-05-07T07:33:27.399Z,2.80
2018-05-07T07:35:55.043Z,2.57
2018-05-07T07:38:23.001Z,2.90
2018-05-07T07:40:50.506Z,2.50
2018-05-07T07:43:19.608Z,2.77
2018-05-07T07:45:47.134Z,2.73
2018-05-07T07:48:14.589Z,2.93
2018-05-07T07:50:42.079Z,3.10
2018-05-07T07:53:09.582Z,3.00
2018-05-07T07:55:37.386Z,2.77
2018-05-07T07:58:04.907Z,2.80
2018-05-07T08:00:32.404Z,2.70
2018-05-07T08:02:59.922Z,2.87
2018-05-07T08:05:27.807Z,2.87
2018-05-07T08:07:55.543Z,2.60
2018-05-07T08:10:23.001Z,2.63
2018-05-07T08:12:50.821Z,2.57
2018-05-07T08:15:18.535Z,2.47
2018-05-07T08:17:46.093Z,3.07
2018-05-07T08:20:13.582Z,2.80
2018-05-07T08:22:41.165Z,2.53
2018-05-07T08:25:08.697Z,2.60
2018-05-07T08:27:37.409Z,2.73
2018-05-07T08:30:05.217Z,2.60
2018-05-07T08:32:32.717Z,2.57
2018-05-07T08:35:00.655Z,2.37
2018-05-07T08:37:28.230Z,2.73
2018-05-07T08:39:56.138Z,2.80
2018-05-07T08:42:23.632Z,3.60
2018-05-07T08:44:51.170Z,2.73
2018-05-07T08:47:19.265Z,2.23
2018-05-07T08:49:47.041Z,2.60
2018-05-07T08:52:15.393Z,2.83
2018-05-07T08:54:43.422Z,2.27
2018-05-07T08:57:11.002Z,2.43
2018-05-07T08:59:38.732Z,2.30
2018-05-07T09:02:06.384Z,2.77
2018-05-07T09:04:34.365Z,3.20
2018-05-07T09:07:02.335Z,2.87
2018-05-07T09:09:30.751Z,3.00
2018-05-07T09:11:58.478Z,2.60
2018-05-07T09:14:25.932Z,3.13
2018-05-07T09:16:53.438Z,2.70
2018-05-07T09:19:20.951Z,2.60
2018-05-07T09:21:48.449Z,2.60
2018-05-07T09:24:15.977Z,2.77
2018-05-07T09:26:43.478Z,2.60
2018-05-07T09:29:10.982Z,2.40
2018-05-07T09:31:38.511Z,2.60
2018-05-07T09:34:06.021Z,2.80
2018-05-07T09:36:33.768Z,2.90
2018-05-07T09:39:01.690Z,2.40
2018-05-07T09:41:29.782Z,2.60
2018-05-07T09:43:57.646Z,2.63
2018-05-07T09:46:25.358Z,2.70
2018-05-07T09:48:53.845Z,2.77
2018-05-07T09:51:21.498Z,2.87
2018-05-07T09:53:49.007Z,2.80
2018-05-07T09:56:16.522Z,2.90
2018-05-07T09:58:55.979Z,2.80
2018-05-07T10:01:23.868Z,2.63
2018-05-07T10:03:51.364Z,2.60
2018-05-07T10:06:19.162Z,2.80
2018-05-07T10:08:46.690Z,2.80
2018-05-07T10:11:15.029Z,3.00
2018-05-07T10:13:42.510Z,2.60
2018-05-07T10:16:10.026Z,2.73
2018-05-07T10:18:37.543Z,2.63
2018-05-07T10:21:05.046Z,2.40
2018-05-07T10:23:32.907Z,2.70
2018-05-07T10:26:00.369Z,2.97
2018-05-07T10:28:27.946Z,2.70
2018-05-07T10:30:55.716Z,2.03
2018-05-07T10:33:23.405Z,2.90
2018-05-07T10:35:50.868Z,2.60
2018-05-07T10:38:18.354Z,2.70
2018-05-07T10:40:45.826Z,2.80
2018-05-07T10:43:13.349Z,2.80
2018-05-07T10:45:40.806Z,2.63
2018-05-07T10:48:08.338Z,2.47
2018-05-07T10:50:35.824Z,2.30
2018-05-07T10:53:03.554Z,2.57
2018-05-07T10:55:31.442Z,2.73
2018-05-07T10:57:58.960Z,2.67
2018-05-07T11:00:26.539Z,2.60
2018-05-07T11:02:54.055Z,2.50
2018-05-07T11:05:21.629Z,2.67
2018-05-07T11:07:49.179Z,2.63
2018-05-07T11:10:17.407Z,2.40
2018-05-07T11:12:44.912Z,2.43
2018-05-07T11:15:12.402Z,2.53
2018-05-07T11:17:39.861Z,2.60
2018-05-07T11:20:07.347Z,2.50
2018-05-07T11:22:34.815Z,2.43
2018-05-07T11:25:02.315Z,2.70
2018-05-07T11:27:29.770Z,2.97
2018-05-07T11:29:57.245Z,3.00
2018-05-07T11:32:25.633Z,2.70
2018-05-07T11:34:53.124Z,2.53
2018-05-07T11:37:20.596Z,2.83
2018-05-07T11:39:48.091Z,3.00
2018-05-07T11:42:15.556Z,2.43
2018-05-07T11:44:43.051Z,2.87
2018-05-07T11:47:10.514Z,3.23
2018-05-07T11:49:38.013Z,2.67
2018-05-07T11:52:05.482Z,2.53
2018-05-07T11:54:32.973Z,2.33
2018-05-07T11:57:00.441Z,2.50
2018-05-07T11:59:28.015Z,3.33
2018-05-07T12:01:55.473Z,2.40
2018-05-07T12:04:22.963Z,3.90
2018-05-07T12:06:50.426Z,2.23
2018-05-07T12:09:17.979Z,2.37
2018-05-07T12:11:45.443Z,2.93
2018-05-07T12:14:12.942Z,2.57
2018-05-07T12:16:40.419Z,2.57
2018-05-07T12:19:07.909Z,2.60
2018-05-07T12:21:35.370Z,2.23
2018-05-07T12:24:02.834Z,2.30
2018-05-07T12:26:30.317Z,2.63
2018-05-07T12:28:57.785Z,2.50
2018-05-07T12:31:25.359Z,2.53
2018-05-07T12:33:52.755Z,2.30
2018-05-07T12:36:20.231Z,2.80
2018-05-07T12:38:47.703Z,2.03
2018-05-07T12:41:15.188Z,2.30
2018-05-07T12:43:42.650Z,2.40
2018-05-07T12:46:10.138Z,2.23
2018-05-07T12:48:37.602Z,2.70
2018-05-07T12:51:05.082Z,2.53
2018-05-07T12:53:32.555Z,2.47
2018-05-07T12:56:00.029Z,2.23
2018-05-07T12:58:27.498Z,2.50
2018-05-07T13:00:54.987Z,2.67
2018-05-07T13:03:22.456Z,2.40
2018-05-07T13:05:49.949Z,2.30
2018-05-07T13:08:17.421Z,2.50
2018-05-07T13:10:44.907Z,2.37
2018-05-07T13:13:12.383Z,2.33
2018-05-07T13:15:39.865Z,2.60
2018-05-07T13:18:07.331Z,2.70
2018-05-07T13:20:34.841Z,2.25
2018-05-07T13:23:02.320Z,2.58
2018-05-07T13:25:30.234Z,2.67
2018-05-07T13:27:57.707Z,2.33
2018-05-07T13:30:25.190Z,2.33
2018-05-07T13:32:53.586Z,2.25
2018-05-07T13:35:21.096Z,2.65
2018-05-07T13:37:48.561Z,2.62
2018-05-07T13:40:16.042Z,2.60
2018-05-07T13:42:43.807Z,2.30
2018-05-07T13:45:11.285Z,2.65
2018-05-07T13:47:38.773Z,2.03
2018-05-07T13:50:06.239Z,2.28
2018-05-07T13:52:33.739Z,2.58
2018-05-07T13:55:01.207Z,2.65
2018-05-07T13:57:28.695Z,2.83
2018-05-07T13:59:56.250Z,2.45
2018-05-07T14:02:24.362Z,2.55
2018-05-07T14:04:51.837Z,2.55
2018-05-07T14:07:19.318Z,2.25
2018-05-07T14:09:46.796Z,2.15
2018-05-07T14:12:14.279Z,2.62
2018-05-07T14:14:41.746Z,2.58
2018-05-07T14:17:09.232Z,2.67
2018-05-07T14:19:36.949Z,2.95
2018-05-07T14:22:04.430Z,2.75
2018-05-07T14:24:31.886Z,2.60
2018-05-07T14:26:59.383Z,2.67
2018-05-07T14:29:26.854Z,2.40
2018-05-07T14:31:54.380Z,2.78
2018-05-07T14:34:21.856Z,2.17
2018-05-07T14:36:49.346Z,2.70
2018-05-07T14:39:16.805Z,3.87
2018-05-07T14:41:44.340Z,2.50
2018-05-07T14:44:11.874Z,3.08
2018-05-07T14:46:39.363Z,2.83
2018-05-07T14:49:06.829Z,2.40
2018-05-07T14:51:34.327Z,2.53
2018-05-07T14:54:01.796Z,2.60
2018-05-07T14:56:29.303Z,2.80
2018-05-07T14:58:56.775Z,2.55
2018-05-07T15:01:24.258Z,2.40
2018-05-07T15:03:51.718Z,2.50
2018-05-07T15:06:19.203Z,2.30
2018-05-07T15:08:46.678Z,2.83
2018-05-07T15:11:14.166Z,2.62
2018-05-07T15:13:41.685Z,2.22
2018-05-07T15:16:09.140Z,2.40
2018-05-07T15:18:36.630Z,2.20
2018-05-07T15:21:04.091Z,2.40
2018-05-07T15:23:31.587Z,2.17
2018-05-07T15:25:59.056Z,2.42
2018-05-07T15:28:26.538Z,2.28
2018-05-07T15:30:54.010Z,2.40
2018-05-07T15:33:21.499Z,2.15
2018-05-07T15:35:48.957Z,2.62
2018-05-07T15:38:16.446Z,2.30
2018-05-07T15:40:43.916Z,2.45
2018-05-07T15:43:11.406Z,2.50
2018-05-07T15:45:38.880Z,2.62
2018-05-07T15:48:06.390Z,2.35
2018-05-07T15:50:33.859Z,1.85
2018-05-07T15:53:01.349Z,2.17
2018-05-07T15:55:28.818Z,1.92
2018-05-07T15:57:56.310Z,1.95
2018-05-07T16:00:23.783Z,2.40
2018-05-07T16:02:51.447Z,2.28
2018-05-07T16:05:18.799Z,2.08
2018-05-07T16:07:47.126Z,2.20
2018-05-07T16:10:14.594Z,2.28
2018-05-07T16:12:42.092Z,2.25
2018-05-07T16:15:09.612Z,2.20
2018-05-07T16:17:37.062Z,2.35
2018-05-07T16:20:05.518Z,2.42
2018-05-07T16:22:33.035Z,2.47
2018-05-07T16:25:00.505Z,2.03
2018-05-07T16:27:28.029Z,2.33
2018-05-07T16:29:56.417Z,2.37
2018-05-07T16:32:23.942Z,2.30
2018-05-07T16:34:51.418Z,2.00
2018-05-07T16:37:18.881Z,2.40
2018-05-07T16:39:46.372Z,2.42
2018-05-07T16:42:13.841Z,2.22
2018-05-07T16:44:41.329Z,2.40
2018-05-07T16:47:08.793Z,1.95
2018-05-07T16:49:36.282Z,1.92
2018-05-07T16:52:03.756Z,2.40
2018-05-07T16:54:31.322Z,2.30
2018-05-07T16:56:58.806Z,2.28
2018-05-07T16:59:26.711Z,2.50
2018-05-07T17:01:54.177Z,2.30
2018-05-07T17:04:22.594Z,2.10
2018-05-07T17:06:50.078Z,2.50
2018-05-07T17:09:17.562Z,2.17
2018-05-07T17:11:45.038Z,2.33
2018-05-07T17:14:12.644Z,2.08
2018-05-07T17:16:40.043Z,2.30
2018-05-07T17:19:07.540Z,2.30
2018-05-07T17:21:35.198Z,2.25
2018-05-07T17:24:02.541Z,2.30
2018-05-07T17:26:30.011Z,2.50
2018-05-07T17:28:57.502Z,2.30
2018-05-07T17:31:24.966Z,2.57
2018-05-07T17:33:52.509Z,2.97
2018-05-07T17:36:19.982Z,2.47
2018-05-07T17:38:47.462Z,2.43
2018-05-07T17:41:14.930Z,2.20
2018-05-07T17:43:42.639Z,2.60
2018-05-07T17:46:18.790Z,2.27
2018-05-07T17:48:55.283Z,2.47
2018-05-07T17:51:22.753Z,2.30
2018-05-07T17:53:50.246Z,2.30
2018-05-07T17:56:17.712Z,2.13
2018-05-07T17:58:45.169Z,2.27
2018-05-07T18:01:12.656Z,2.27
2018-05-07T18:03:40.114Z,2.13
2018-05-07T18:06:07.611Z,2.07
2018-05-07T18:08:35.093Z,2.20
2018-05-07T18:11:03.430Z,2.10
2018-05-07T18:13:30.893Z,2.40
2018-05-07T18:15:58.374Z,2.25
2018-05-07T18:18:25.838Z,2.40
2018-05-07T18:20:53.310Z,2.20
2018-05-07T18:23:20.774Z,2.70
2018-05-07T18:25:48.254Z,2.47
2018-05-07T18:28:16.288Z,2.60
2018-05-07T18:30:43.773Z,2.55
2018-05-07T18:33:11.230Z,2.50
2018-05-07T18:35:38.713Z,2.07
2018-05-07T18:38:06.262Z,2.30
2018-05-07T18:40:33.659Z,2.50
2018-05-07T18:43:01.119Z,2.30
2018-05-07T18:45:28.610Z,2.50
2018-05-07T18:47:56.157Z,2.57
2018-05-07T18:50:25.504Z,2.60
2018-05-07T18:52:53.010Z,2.60
2018-05-07T18:55:20.489Z,2.37
2018-05-07T18:57:47.946Z,2.53
2018-05-07T19:00:15.426Z,2.67
2018-05-07T19:02:42.893Z,2.70
2018-05-07T19:05:10.377Z,2.10
2018-05-07T19:07:37.842Z,2.27
2018-05-07T19:10:05.337Z,2.50
2018-05-07T19:12:32.810Z,2.43
2018-05-07T19:15:00.293Z,2.63
2018-05-07T19:17:35.461Z,2.53
2018-05-07T19:20:02.948Z,2.50
2018-05-07T19:22:30.410Z,2.33
2018-05-07T19:24:57.901Z,2.60
2018-05-07T19:27:25.370Z,2.67
2018-05-07T19:29:52.865Z,2.93
2018-05-07T19:32:20.354Z,2.53
2018-05-07T19:34:47.890Z,2.97
2018-05-07T19:37:15.374Z,2.97
2018-05-07T19:39:42.841Z,2.87
2018-05-07T19:42:10.343Z,3.00
2018-05-07T19:44:37.826Z,3.10
2018-05-07T19:47:05.313Z,3.27
2018-05-07T19:49:32.771Z,3.20
2018-05-07T19:52:00.256Z,3.20
2018-05-07T19:54:27.722Z,3.27
2018-05-07T19:56:55.201Z,3.53
2018-05-07T19:59:22.667Z,3.60
2018-05-07T20:01:50.195Z,4.00
2018-05-07T20:04:17.653Z,3.63
2018-05-07T20:06:45.129Z,3.57
2018-05-07T20:09:12.633Z,3.40
2018-05-07T20:11:40.125Z,3.50
2018-05-07T20:14:07.659Z,4.40
2018-05-07T20:16:35.083Z,3.50
2018-05-07T20:19:02.556Z,3.67
2018-05-07T20:21:30.054Z,3.77
2018-05-07T20:23:57.520Z,4.30
2018-05-07T20:26:25.003Z,4.20
2018-05-07T20:28:52.469Z,3.73
2018-05-07T20:31:19.976Z,4.40
2018-05-07T20:33:47.461Z,4.93
2018-05-07T20:36:14.950Z,4.60
2018-05-07T20:38:42.418Z,4.60
2018-05-07T20:41:09.951Z,4.50
2018-05-07T20:43:37.394Z,4.07
2018-05-07T20:46:04.874Z,3.97
2018-05-07T20:48:32.337Z,4.20
2018-05-07T20:50:59.818Z,4.23
2018-05-07T20:53:27.284Z,4.30
2018-05-07T20:55:54.741Z,3.50
2018-05-07T20:58:22.272Z,4.63
2018-05-07T21:00:49.741Z,4.33
2018-05-07T21:03:17.221Z,4.07
2018-05-07T21:05:44.689Z,3.53
2018-05-07T21:08:12.178Z,4.43
2018-05-07T21:10:39.646Z,4.23
2018-05-07T21:13:07.129Z,4.20
2018-05-07T21:15:34.599Z,4.17
2018-05-07T21:18:02.088Z,4.10
2018-05-07T21:20:29.549Z,4.33
2018-05-07T21:22:58.982Z,4.00
2018-05-07T21:25:26.445Z,4.27
2018-05-07T21:27:53.948Z,4.37
2018-05-07T21:30:21.418Z,4.33
2018-05-07T21:32:48.901Z,4.23
2018-05-07T21:35:16.386Z,4.50
2018-05-07T21:37:43.866Z,4.30
2018-05-07T21:40:11.331Z,4.57
2018-05-07T21:42:38.817Z,4.17
2018-05-07T21:45:06.287Z,4.30
2018-05-07T21:47:33.768Z,4.50
2018-05-07T21:50:01.231Z,4.30
2018-05-07T21:52:28.726Z,4.40
2018-05-07T21:54:56.198Z,4.13
2018-05-07T21:57:23.702Z,4.77
2018-05-07T21:59:51.170Z,4.47
2018-05-07T22:02:18.716Z,4.50
2018-05-07T22:04:46.130Z,4.40
2018-05-07T22:07:13.609Z,3.93
2018-05-07T22:09:41.086Z,4.20
2018-05-07T22:12:08.570Z,4.07
2018-05-07T22:14:36.139Z,4.80
2018-05-07T22:17:03.610Z,4.60
2018-05-07T22:19:31.084Z,4.30
2018-05-07T22:21:58.560Z,3.90
2018-05-07T22:24:26.045Z,3.97
2018-05-07T22:26:53.511Z,3.60
2018-05-07T22:29:20.998Z,4.20
2018-05-07T22:31:48.457Z,3.90
2018-05-07T22:34:15.950Z,3.70
2018-05-07T22:36:43.413Z,4.10
2018-05-07T22:39:10.944Z,3.90
2018-05-07T22:41:38.381Z,3.77
2018-05-07T22:44:05.863Z,3.90
2018-05-07T22:46:33.336Z,4.60
2018-05-07T22:49:00.877Z,4.07
2018-05-07T22:51:28.313Z,4.00
2018-05-07T22:53:55.815Z,4.27
2018-05-07T22:56:23.294Z,4.10
2018-05-07T22:58:50.778Z,3.70
2018-05-07T23:01:18.246Z,4.10
2018-05-07T23:03:45.741Z,3.70
2018-05-07T23:06:13.219Z,4.33
2018-05-07T23:08:40.698Z,4.10
2018-05-07T23:11:08.177Z,4.00
2018-05-07T23:13:35.654Z,3.63
2018-05-07T23:16:03.118Z,3.00
2018-05-07T23:18:30.609Z,3.50
2018-05-07T23:20:58.069Z,3.30
2018-05-07T23:23:25.557Z,3.77
2018-05-07T23:25:53.014Z,3.60
2018-05-07T23:28:20.497Z,3.60
2018-05-07T23:30:47.966Z,3.60
2018-05-07T23:33:15.528Z,3.50
2018-05-07T23:35:43.001Z,3.30
2018-05-07T23:38:10.479Z,3.53
2018-05-07T23:40:37.981Z,3.63
2018-05-07T23:43:05.438Z,3.30
2018-05-07T23:45:32.927Z,3.57
2018-05-07T23:48:00.387Z,3.57
2018-05-07T23:50:27.874Z,3.57
2018-05-07T23:52:55.338Z,3.80
2018-05-07T23:55:22.818Z,3.83
2018-05-07T23:57:50.282Z,4.03
